Date,TemperatureHighF,TemperatureAvgF,TemperatureLowF,DewpointHighF,DewpointAvgF,DewpointLowF,HumidityHigh,HumidityAvg,HumidityLow,PressureMaxIn,PressureMinIn,WindSpeedMaxMPH,WindSpeedAvgMPH,GustSpeedMaxMPH,PrecipitationSumIn
2014-1-1,46,36,28,38,33,28,98,90,72,0.00,40.00,2,1,4,0.00
2014-1-2,50,38,34,40,35,33,96,88,62,0.00,40.00,9,2,29,0.00
2014-1-3,46,42,31,43,33,28,88,71,55,0.00,40.00,9,4,23,0.01
2014-1-4,44,31,24,29,24,-100,94,80,54,0.00,40.00,2,1,4,0.00
2014-1-5,41,32,21,27,23,19,92,72,52,0.00,40.00,4,2,13,0.00
2014-1-6,37,31,25,27,24,21,86,76,59,0.00,40.00,3,1,8,0.00
2014-1-7,37,33,31,33,31,29,98,92,74,0.00,40.00,2,0,4,0.00
2014-1-8,38,35,33,38,35,32,99,97,92,0.00,40.00,2,1,6,0.02
2014-1-9,47,42,41,44,40,35,98,89,71,0.00,40.00,8,3,31,0.02
2014-1-10,51,48,43,44,41,38,98,78,64,0.00,40.00,10,5,28,0.01
2014-1-11,52,45,42,45,37,-100,99,79,54,0.00,40.00,11,6,31,0.02
2014-1-12,53,47,41,45,41,35,86,79,71,0.00,40.00,12,8,30,0.01
2014-1-13,51,49,47,46,42,37,92,77,59,0.00,40.00,9,5,27,0.00
2014-1-14,49,42,34,42,38,34,97,86,69,0.00,40.00,6,2,17,0.00
2014-1-15,46,36,33,37,34,31,99,93,72,0.00,40.00,4,2,8,0.00
2014-1-16,49,36,28,37,31,27,96,84,53,0.00,40.00,3,1,8,0.00
2014-1-17,42,32,26,37,30,25,98,91,75,0.00,40.00,5,2,16,0.00
2014-1-18,36,34,33,31,28,-100,86,81,80,0.00,40.00,4,2,9,0.00
2014-1-19,38,34,32,30,30,28,89,82,73,0.00,40.00,5,2,10,0.00
2014-1-20,35,34,33,30,28,27,84,79,74,0.00,40.00,7,4,15,0.00
2014-1-21,35,33,32,27,27,26,81,77,70,0.00,40.00,5,3,12,0.00
2014-1-22,35,33,30,31,29,27,90,85,79,0.00,40.00,5,2,13,0.00
2014-1-23,36,34,33,29,28,27,84,78,72,0.00,40.00,7,4,18,0.00
2014-2-11,41,36,33,41,36,33,100,99,95,0.00,40.00,2,1,4,0.03
2014-2-12,51,41,34,47,40,34,99,93,75,0.00,40.00,7,2,20,0.02
2014-2-13,52,47,39,46,39,36,99,74,55,0.00,40.00,7,4,23,0.01
2014-2-14,51,41,36,43,39,35,99,92,74,0.00,40.00,7,2,12,0.03
2014-2-15,44,39,35,40,35,-100,99,93,75,0.00,40.00,4,2,10,0.03
2014-2-16,48,42,38,39,36,33,95,80,57,0.00,40.00,7,3,20,0.01
2014-2-17,51,46,40,44,40,35,99,81,55,0.00,40.00,10,4,27,0.03
2014-2-18,44,40,37,42,38,29,99,92,59,0.00,40.00,9,3,24,0.03
2014-2-19,44,39,36,37,35,34,96,87,69,0.00,40.00,9,4,23,0.01
2014-2-20,45,43,38,41,39,35,98,85,78,0.00,40.00,10,6,28,0.01
2014-2-21,49,45,41,39,34,31,80,66,49,0.00,40.00,9,6,25,0.01
2014-2-22,45,40,36,32,30,27,80,66,49,0.00,40.00,9,4,22,0.00
2014-2-23,53,42,32,40,34,30,94,74,51,0.00,40.00,8,2,19,0.00
2014-2-24,45,39,36,41,36,33,93,86,75,0.00,40.00,5,2,16,0.01
2014-2-25,36,36,34,32,30,27,89,79,68,0.00,40.00,6,3,16,0.01
2014-2-26,41,38,35,29,27,26,70,66,61,0.00,40.00,6,3,13,0.00
2014-2-27,43,39,36,36,32,28,88,75,65,0.00,40.00,4,2,9,0.00
2014-2-28,41,38,36,35,35,34,94,88,79,0.00,40.00,4,1,12,0.00
2014-3-1,-200,0,200,-100,-100,-100,0,0,100,0.00,40.00,3,3,7,0.00
2014-3-6,53,50,45,45,43,41,93,78,65,0.00,40.00,7,4,19,0.01
2014-3-7,61,51,43,46,43,41,93,76,50,0.00,40.00,8,3,21,0.00
2014-3-8,52,43,35,48,39,-100,99,90,67,0.00,40.00,2,1,5,0.02
2014-3-9,58,53,48,51,49,45,99,86,67,0.00,40.00,9,3,21,0.02
2014-3-10,52,49,47,49,44,39,99,84,60,0.00,40.00,8,4,22,0.01
2014-3-11,50,45,43,37,36,35,76,70,61,0.00,40.00,4,3,7,0.00
2014-3-12,32,32,32,30,30,30,92,92,92,0.00,40.00,2,2,4,0.00
2014-3-14,60,55,51,44,38,36,64,52,42,0.00,40.00,6,4,24,0.00
2014-3-15,65,50,37,48,36,-100,90,64,37,0.00,40.00,8,3,21,0.00
2014-3-16,60,55,42,47,44,37,84,66,41,0.00,40.00,9,6,26,0.00
2014-3-17,48,43,40,37,32,29,84,65,47,0.00,40.00,9,6,27,0.00
2014-3-18,58,43,33,37,33,29,88,68,45,0.00,40.00,5,3,12,0.00
2014-3-19,52,46,42,42,38,33,87,73,64,0.00,40.00,10,6,23,0.00
2014-3-20,49,43,37,34,31,28,77,64,44,0.00,40.00,7,4,18,0.01
2014-3-21,43,34,29,33,30,27,92,83,63,0.00,40.00,2,1,5,0.00
2014-3-24,63,55,44,35,33,30,69,44,28,0.00,40.00,7,3,17,0.00
2014-3-25,53,45,43,46,39,36,88,78,72,0.00,40.00,2,1,5,0.00
2014-3-26,51,46,42,44,43,42,98,88,75,0.00,40.00,2,2,6,0.01
2014-4-1,51,46,42,42,36,-100,90,76,70,0.00,40.00,5,2,11,0.02
2014-4-2,57,49,42,41,38,34,87,68,44,0.00,40.00,8,4,21,0.01
2014-4-3,57,46,35,42,38,34,94,75,48,0.00,40.00,7,2,19,0.00
2014-4-4,54,48,42,42,40,37,97,75,54,0.00,40.00,9,3,25,0.00
2014-4-5,56,49,43,47,42,-100,93,81,68,0.00,40.00,7,3,17,0.00
2014-4-6,62,55,49,49,47,43,86,74,58,0.00,40.00,9,6,25,0.00
2014-4-7,75,57,40,48,44,39,96,67,32,0.00,40.00,3,2,7,0.00
2014-4-8,70,58,45,53,47,43,92,68,36,0.00,40.00,10,5,26,0.00
2014-4-9,62,54,47,50,38,27,95,59,27,0.00,40.00,9,5,22,0.01
2014-4-10,57,48,43,38,35,33,74,61,42,0.00,40.00,7,4,16,0.00
2014-4-15,56,55,54,36,36,35,49,47,45,0.00,40.00,7,7,20,0.00
2014-4-16,53,50,48,43,41,38,78,70,59,0.00,40.00,9,5,21,0.00
2014-4-19,-200,0,200,-100,-100,-100,0,0,100,0.00,40.00,5,5,15,0.00
2014-4-21,65,56,49,48,46,40,93,69,39,0.00,40.00,6,3,14,0.00
2014-4-22,54,48,43,48,40,32,96,74,45,0.00,40.00,9,4,25,0.01
2014-4-23,50,48,43,49,48,43,99,97,94,0.00,40.00,2,1,4,0.02
2014-5-3,-200,0,200,-100,-100,-100,0,0,100,0.00,40.00,2,2,5,0.00
2014-5-5,61,57,52,43,42,38,69,57,43,0.00,40.00,7,5,19,0.01
2014-5-6,62,56,51,45,42,38,78,60,41,0.00,40.00,9,6,22,0.00
2014-5-16,69,66,62,48,46,44,60,48,40,0.00,40.00,11,7,28,0.00
2014-5-17,67,60,54,50,44,-100,74,58,40,0.00,40.00,9,6,24,0.00
2014-5-18,59,55,50,50,47,44,80,74,61,0.00,40.00,10,5,24,0.00
2014-5-20,53,50,48,47,46,44,84,82,79,0.00,40.00,2,2,4,0.00
2014-5-21,58,58,58,47,47,47,68,68,68,0.00,40.00,6,6,14,0.00
2014-5-24,-200,0,200,-100,-100,-100,0,0,100,0.00,40.00,4,4,10,0.00
2014-5-26,69,64,55,49,43,37,68,48,33,0.00,40.00,10,6,24,0.00
2014-5-27,67,57,45,47,41,36,88,59,32,0.00,40.00,10,5,27,0.00
2014-5-28,61,56,51,45,44,41,78,64,47,0.00,40.00,9,6,27,0.00
2014-5-29,66,57,48,49,46,43,88,67,45,0.00,40.00,8,4,20,0.00
2014-5-30,81,62,43,51,44,39,95,59,22,0.00,40.00,5,3,14,0.00
2014-5-31,75,65,53,52,47,-100,83,55,41,0.00,40.00,10,6,23,0.00
2014-6-1,73,63,54,52,49,47,80,61,41,0.00,40.00,10,7,26,0.00
2014-6-2,75,65,49,54,51,44,88,61,39,0.00,40.00,11,4,26,0.00
2014-6-3,66,61,54,51,47,46,79,61,49,0.00,40.00,13,8,30,0.00
2014-6-4,75,63,48,50,47,39,86,56,35,0.00,40.00,9,5,22,0.00
2014-6-5,76,66,52,48,44,38,69,47,27,0.00,40.00,9,4,21,0.00
2014-6-6,80,66,47,49,44,39,77,48,27,0.00,40.00,7,3,23,0.00
2014-6-7,76,65,53,52,47,-100,74,55,43,0.00,40.00,9,4,24,0.00
2014-6-8,79,69,55,55,52,50,84,57,40,0.00,40.00,9,4,23,0.00
2014-6-9,73,66,58,55,50,48,77,58,41,0.00,40.00,10,7,23,0.00
2014-6-10,73,63,54,48,46,43,74,54,37,0.00,40.00,11,7,25,0.00
2014-6-11,80,64,49,52,47,41,89,58,27,0.00,40.00,6,2,16,0.00
2014-6-12,66,60,52,52,49,46,92,66,50,0.00,40.00,11,7,31,0.01
2014-6-13,59,56,52,53,50,46,98,79,62,0.00,40.00,9,4,24,0.01
2014-6-14,64,57,53,48,43,-100,71,63,53,0.00,40.00,8,6,22,0.00
2014-6-15,62,57,53,50,47,44,74,68,57,0.00,40.00,9,6,24,0.00
2014-6-16,61,55,50,46,43,40,78,64,52,0.00,40.00,8,5,23,0.00
2014-6-17,63,56,50,50,47,44,95,72,61,0.00,40.00,8,4,26,0.01
2014-6-18,69,60,55,49,46,44,72,60,47,0.00,40.00,10,7,27,0.01
2014-6-19,78,66,49,52,48,44,86,55,32,0.00,40.00,10,5,25,0.00
2014-6-20,69,63,56,53,47,40,81,59,35,0.00,40.00,8,6,25,0.00
2014-6-21,75,61,45,50,43,-100,87,56,26,0.00,40.00,6,3,19,0.00
2014-6-22,83,65,49,53,49,44,83,59,29,0.00,40.00,5,2,12,0.00
2014-6-23,81,67,52,53,50,47,88,59,32,0.00,40.00,10,4,24,0.00
2014-6-24,75,67,58,55,53,46,82,61,45,0.00,40.00,9,6,23,0.00
2014-6-25,77,66,53,59,54,50,89,68,45,0.00,40.00,5,2,13,0.00
2014-6-26,69,64,61,59,57,54,90,79,67,0.00,40.00,9,5,25,0.00
2014-6-27,70,62,57,60,57,52,99,84,68,0.00,40.00,9,4,20,0.01
2014-6-28,70,62,58,55,51,-100,85,72,60,0.00,40.00,9,5,25,0.00
2014-6-29,70,64,58,54,51,48,86,65,47,0.00,40.00,8,6,22,0.00
2014-6-30,85,68,47,53,48,41,95,55,21,0.00,40.00,6,2,15,0.00
2014-7-1,95,75,53,56,50,45,81,47,18,0.00,40.00,7,3,15,0.00
2014-7-2,83,72,65,56,53,50,68,52,37,0.00,40.00,8,5,20,0.00
2014-7-3,73,67,60,53,52,49,76,59,44,0.00,40.00,11,7,26,0.00
2014-7-4,80,69,60,53,49,41,74,51,28,0.00,40.00,10,6,26,0.00
2014-7-5,85,74,58,55,52,43,78,49,22,0.00,40.00,7,4,18,0.00
2014-7-6,88,75,62,57,55,53,72,51,32,0.00,40.00,8,4,20,0.00
2014-7-7,94,79,59,64,60,55,85,56,30,0.00,40.00,7,3,19,0.00
2014-7-8,89,77,62,64,62,59,88,61,41,0.00,40.00,9,4,22,0.00
2014-7-9,85,76,69,59,57,55,62,52,38,0.00,40.00,9,6,22,0.00
2014-7-10,86,71,64,56,54,50,67,55,31,0.00,40.00,9,7,20,0.00
2014-7-12,86,68,79,64,53,63,59,53,45,0.00,40.00,3,2,9,0.00
2014-7-13,79,70,65,68,62,58,86,77,64,0.00,40.00,7,2,18,0.00
2014-7-14,86,75,61,64,61,59,94,64,46,0.00,40.00,10,5,25,0.00
2014-7-15,95,78,62,66,61,57,84,59,32,0.00,40.00,6,2,17,0.00
2014-7-16,92,78,60,64,56,41,80,52,20,0.00,40.00,9,4,20,0.00
2014-7-17,81,74,64,57,51,45,63,46,28,0.00,40.00,13,8,29,0.00
2014-7-18,80,70,61,55,50,47,65,49,35,0.00,40.00,12,7,25,0.00
2014-7-19,84,74,62,62,58,55,77,59,42,0.00,40.00,10,7,22,0.00
2014-7-20,74,67,63,60,55,50,77,64,50,0.00,40.00,10,7,24,0.00
2014-7-21,78,68,58,51,48,42,73,49,29,0.00,40.00,8,5,20,0.00
2014-7-22,76,67,60,63,59,50,97,78,57,0.00,40.00,5,2,13,0.00
2014-7-23,65,61,57,63,57,52,98,85,67,0.00,40.00,7,3,16,0.02
2014-7-24,69,62,56,55,52,49,91,70,56,0.00,40.00,8,5,21,0.01
2014-7-25,78,65,49,55,51,47,96,65,37,0.00,40.00,8,3,20,0.00
2014-7-26,86,68,50,56,51,46,86,57,31,0.00,40.00,6,2,14,0.00
2014-7-27,88,71,54,64,57,49,83,63,39,0.00,40.00,3,2,6,0.00
2014-7-28,92,78,57,65,60,54,89,58,35,0.00,40.00,8,3,19,0.00
2014-7-29,91,76,59,62,57,50,79,54,33,0.00,40.00,9,4,22,0.00
2014-7-30,90,78,63,63,58,54,74,51,31,0.00,40.00,8,4,20,0.00
2014-7-31,93,75,58,64,57,51,78,55,32,0.00,40.00,5,2,13,0.00
2014-8-1,92,80,69,65,61,57,77,54,36,0.00,40.00,6,2,20,0.00
2014-8-2,85,76,64,64,60,59,86,61,42,0.00,40.00,8,4,22,0.00
2014-8-3,94,78,62,66,62,57,88,60,33,0.00,40.00,5,2,13,0.00
2014-8-4,92,77,64,66,63,60,90,64,41,0.00,40.00,7,2,16,0.00
2014-8-5,83,76,67,59,53,49,61,45,33,0.00,40.00,11,7,26,0.00
2014-8-6,81,73,64,58,57,55,74,58,43,0.00,40.00,11,7,26,0.00
2014-8-7,82,76,65,54,50,40,68,42,22,0.00,40.00,10,7,23,0.00
2014-8-8,79,68,58,54,51,47,75,56,41,0.00,40.00,10,6,23,0.00
2014-8-9,88,69,52,58,52,45,86,57,22,0.00,40.00,5,2,12,0.00
2014-8-10,98,75,56,63,54,45,85,55,17,0.00,40.00,5,2,15,0.00
2014-8-11,102,77,65,60,55,48,73,52,17,0.00,40.00,4,2,8,0.00
2014-8-12,87,74,65,66,62,57,95,68,44,0.00,40.00,9,2,22,0.01
2014-8-13,75,69,62,65,60,58,94,75,54,0.00,40.00,8,4,19,0.01
2014-8-14,77,69,62,60,57,55,84,66,47,0.00,40.00,8,4,18,0.00
2014-8-15,79,69,58,61,58,55,91,69,47,0.00,40.00,8,3,19,0.00
2014-8-16,86,71,57,63,57,55,92,64,37,0.00,40.00,8,3,19,0.00
2014-8-17,87,73,58,63,60,54,86,66,39,0.00,40.00,8,3,20,0.00
2014-8-18,95,78,59,67,61,56,90,60,29,0.00,40.00,6,2,13,0.00
2014-8-19,84,75,69,64,59,56,80,59,39,0.00,40.00,10,7,24,0.00
2014-8-20,74,68,61,58,50,46,72,54,38,0.00,40.00,11,8,30,0.00
2014-8-21,78,68,59,51,45,35,75,47,23,0.00,40.00,9,6,22,0.00
2014-8-22,79,67,53,57,52,48,87,60,37,0.00,40.00,8,3,18,0.00
2014-8-23,86,68,52,56,51,48,92,60,27,0.00,40.00,3,2,7,0.00
2014-8-24,82,67,53,57,52,49,88,62,37,0.00,40.00,6,2,18,0.00
2014-8-25,87,68,52,56,51,45,88,60,23,0.00,40.00,3,2,7,0.00
2014-8-26,94,69,56,57,53,51,83,59,23,0.00,40.00,2,2,6,0.00
2014-8-27,89,84,72,60,57,54,59,40,33,0.00,40.00,9,5,20,0.00
2014-8-28,82,73,62,59,55,48,84,55,32,0.00,40.00,7,4,19,0.00
2014-8-29,75,67,53,58,54,49,87,64,45,0.00,40.00,10,5,24,0.00
2014-8-30,68,63,62,61,54,50,78,68,63,0.00,40.00,7,4,19,0.00
2014-8-31,72,64,57,54,51,47,81,64,43,0.00,40.00,8,4,19,0.00
2014-9-1,79,67,50,54,51,47,91,59,40,0.00,40.00,8,4,20,0.00
2014-9-2,73,65,54,57,51,47,88,61,43,0.00,40.00,10,6,28,0.00
2014-9-3,70,62,55,49,46,43,76,54,42,0.00,40.00,9,6,22,0.00
2014-9-4,80,62,45,52,45,42,91,59,26,0.00,40.00,6,2,12,0.00
2014-9-5,81,59,47,50,44,39,85,63,21,0.00,40.00,5,2,13,0.00
2014-9-6,-200,0,200,-100,0,200,0,0,100,0.00,40.00,1,1,3,0.00
2014-9-7,88,76,63,52,49,48,61,41,26,0.00,40.00,3,2,8,0.00
2014-9-8,78,69,60,55,51,47,71,52,37,0.00,40.00,11,5,29,0.00
2014-9-9,72,65,59,53,48,44,69,56,41,0.00,40.00,9,6,22,0.00
2014-9-10,79,66,51,54,45,32,86,51,24,0.00,40.00,10,4,22,0.00
2014-9-11,71,62,51,36,30,26,56,32,20,0.00,40.00,9,4,21,0.00
2014-9-12,78,58,37,40,33,26,87,46,14,0.00,40.00,6,2,13,0.00
2014-9-13,81,59,42,39,34,25,75,45,12,0.00,40.00,7,2,16,0.00
2014-9-14,84,61,42,47,38,31,78,48,14,0.00,40.00,5,2,15,0.00
2014-9-15,87,64,46,56,43,34,77,52,15,0.00,40.00,5,2,12,0.00
2014-9-16,77,66,51,51,48,43,77,54,37,0.00,40.00,9,4,22,0.00
2014-9-17,80,67,56,54,52,49,82,59,37,0.00,40.00,6,2,16,0.00
2014-9-18,71,66,59,58,56,53,85,70,57,0.00,40.00,9,4,22,0.00
2014-9-19,81,69,63,57,56,54,75,63,40,0.00,40.00,8,4,18,0.00
2014-9-20,87,68,51,55,51,49,90,59,27,0.00,40.00,6,2,14,0.00
2014-9-21,91,72,54,55,52,49,85,53,24,0.00,40.00,6,3,18,0.00
2014-9-22,73,67,62,55,54,53,75,63,52,0.00,40.00,9,5,26,0.00
2014-9-23,69,62,55,58,55,52,91,77,60,0.00,40.00,2,1,10,0.00
2014-9-24,64,61,58,61,59,58,99,94,85,0.00,40.00,3,1,8,0.01
2014-9-25,72,61,54,59,56,51,99,86,48,0.00,40.00,4,2,7,0.00
2014-9-26,70,59,49,56,51,49,98,78,49,0.00,40.00,5,2,14,0.00
2014-9-27,75,58,46,56,50,45,96,75,46,0.00,40.00,6,2,17,0.00
2014-9-28,82,63,48,55,50,47,97,69,31,0.00,40.00,3,2,8,0.00
2014-9-29,67,61,51,55,52,48,91,74,58,0.00,40.00,10,6,25,0.00
2014-9-30,65,60,56,51,48,44,77,66,49,0.00,40.00,8,5,22,0.00
2014-10-1,65,58,45,48,45,42,90,63,43,0.00,40.00,8,5,19,0.00
2014-10-2,73,63,52,49,43,36,76,50,25,0.00,40.00,4,2,8,0.00
2014-10-3,77,57,41,46,42,38,93,64,26,0.00,40.00,4,2,10,0.00
2014-10-4,83,59,42,54,45,40,94,64,30,0.00,40.00,3,2,14,0.00
2014-10-5,85,66,48,57,51,44,85,60,35,0.00,40.00,6,2,13,0.00
2014-10-6,86,66,51,59,54,48,91,67,33,0.00,40.00,4,2,13,0.00
2014-10-7,83,65,49,59,54,47,90,70,40,0.00,40.00,8,2,18,0.00
2014-10-8,74,64,52,56,51,45,96,67,34,0.00,40.00,8,3,21,0.00
2014-10-9,76,59,44,49,46,41,89,65,38,0.00,40.00,2,2,4,0.00
2014-10-10,74,60,45,54,48,41,87,67,50,0.00,40.00,8,4,19,0.00
2014-10-11,68,61,55,57,52,46,89,72,52,0.00,40.00,9,6,27,0.01
2014-10-12,64,58,53,52,50,47,88,72,56,0.00,40.00,5,3,15,0.01
2014-10-13,71,54,44,50,46,43,95,76,37,0.00,40.00,3,1,6,0.00
2014-10-14,59,54,48,55,52,43,99,90,75,0.00,40.00,6,2,17,0.01
2014-10-15,58,53,47,53,50,47,99,90,70,0.00,40.00,6,2,16,0.01
2014-10-16,66,53,46,50,47,43,99,83,42,0.00,40.00,3,1,8,0.00
2014-10-17,56,52,48,53,50,46,98,92,84,0.00,40.00,2,1,7,0.00
2014-10-18,69,55,49,58,52,48,98,89,68,0.00,40.00,2,1,5,0.00
2014-10-19,71,57,49,56,53,49,100,88,56,0.00,40.00,2,1,5,0.00
2014-10-20,59,55,52,57,54,51,99,96,89,0.00,40.00,2,1,8,0.01
2014-10-21,59,53,48,53,50,48,99,91,74,0.00,40.00,4,1,11,0.01
2014-10-22,57,53,49,55,52,49,100,96,87,0.00,40.00,2,1,7,0.01
2014-10-23,57,52,47,53,50,46,100,93,76,0.00,40.00,6,2,19,0.01
2014-10-24,52,49,45,51,48,45,100,97,88,0.00,40.00,2,1,5,0.01
2014-10-25,57,53,51,52,49,46,96,86,73,0.00,40.00,7,3,24,0.01
2014-10-26,54,48,45,47,45,43,97,88,75,0.00,40.00,4,2,14,0.01
2014-10-27,57,49,44,49,46,43,98,89,66,0.00,40.00,3,2,7,0.01
2014-10-28,51,48,45,49,48,45,100,96,91,0.00,40.00,2,1,6,0.01
2014-10-29,59,51,44,56,50,44,100,98,89,0.00,40.00,2,1,5,0.01
2014-10-30,56,54,53,54,53,53,100,98,93,0.00,40.00,4,1,9,0.02
2014-11-4,60,55,51,56,52,48,100,89,71,0.00,40.00,9,4,24,0.00
2014-11-5,60,54,46,54,51,46,99,89,76,0.00,40.00,2,1,8,0.00
2014-11-6,56,51,48,52,50,48,98,96,86,0.00,40.00,2,1,5,0.00
2014-11-9,49,49,49,47,47,47,90,90,90,0.00,40.00,0,0,0,0.00
2014-11-10,51,40,32,34,30,26,93,71,39,0.00,40.00,3,1,9,0.00
2014-11-11,41,34,27,29,17,5,97,55,29,0.00,40.00,11,5,28,0.00
2014-11-12,36,30,25,10,6,3,45,36,27,0.00,40.00,9,5,22,0.00
2014-11-13,29,26,25,25,18,9,97,74,42,0.00,40.00,4,2,15,0.00
2014-11-14,35,27,16,28,23,15,97,86,63,0.00,40.00,4,1,10,0.01
2014-11-15,30,17,7,18,12,5,94,80,60,0.00,40.00,5,2,13,0.01
2014-11-16,19,18,18,16,14,12,90,85,77,0.00,40.00,5,3,12,0.00
2014-11-18,27,23,19,20,18,17,92,81,70,0.00,40.00,2,1,5,0.00
2014-11-19,32,26,21,26,21,19,92,81,63,0.00,40.00,6,2,13,0.00
2014-11-20,38,32,29,32,30,26,99,92,77,0.00,40.00,1,0,3,0.00
2014-11-21,35,33,31,35,33,31,100,98,94,0.00,40.00,3,1,7,0.04
2014-11-22,49,43,37,43,40,36,100,87,72,0.00,40.00,7,3,22,0.01
2014-11-23,57,48,43,46,43,37,94,82,48,0.00,40.00,11,4,28,0.01
2014-11-24,52,45,39,49,43,39,99,91,81,0.00,40.00,8,2,20,0.01
2014-11-25,60,58,53,54,52,51,90,80,73,0.00,40.00,9,7,23,0.01
2014-11-26,61,57,48,52,50,47,97,80,67,0.00,40.00,7,3,17,0.00
2014-11-27,56,53,46,51,49,46,99,84,76,0.00,40.00,3,2,9,0.00
2014-11-28,55,50,43,53,48,38,100,93,78,0.00,40.00,7,2,19,0.02
2014-11-29,43,37,31,37,32,25,93,79,62,0.00,40.00,8,4,20,0.02
2014-11-30,30,26,22,20,10,6,65,51,42,0.00,40.00,7,5,18,0.01
2014-12-1,29,26,22,24,18,11,84,70,57,0.00,40.00,3,1,8,0.00
2014-12-2,29,28,28,26,24,22,93,81,72,0.00,40.00,6,3,17,0.00
2014-12-3,32,31,29,24,23,21,77,71,64,0.00,40.00,8,5,18,0.00
2014-12-4,34,32,31,33,30,24,98,91,75,0.00,40.00,5,1,11,0.01
2014-12-5,36,35,33,34,33,32,99,92,86,0.00,40.00,4,2,11,0.01
2014-12-6,41,36,34,38,36,34,100,95,87,0.00,40.00,2,1,5,0.01
2014-12-7,42,39,37,40,38,37,100,96,86,0.00,40.00,3,2,11,0.00
2014-12-8,42,41,39,39,39,38,98,93,86,0.00,40.00,2,1,8,0.00
2014-12-9,43,40,39,42,40,39,100,97,95,0.00,40.00,3,1,6,0.01
2014-12-10,46,42,41,46,42,41,100,98,98,0.00,40.00,2,1,5,0.01
2014-12-11,54,46,36,47,43,36,100,89,60,0.00,40.00,4,2,13,0.00
2014-12-12,49,46,43,43,42,41,94,86,78,0.00,40.00,3,2,8,0.00
2014-12-15,38,38,36,34,33,32,95,83,79,0.00,40.00,5,3,13,0.00
2014-12-16,38,36,34,37,35,34,99,96,92,0.00,40.00,4,1,9,0.00
2014-12-17,41,39,38,39,38,37,100,96,91,0.00,40.00,3,1,7,0.00
2014-12-18,42,40,38,40,39,37,100,96,89,0.00,40.00,2,1,4,0.00
2014-12-19,50,41,38,44,40,38,100,97,77,0.00,40.00,3,1,6,0.01
2014-12-20,42,38,40,42,38,40,100,99,100,0.00,40.00,3,1,5,0.07
2014-12-21,59,51,44,54,48,44,100,89,62,0.00,40.00,9,4,28,0.05
2014-12-22,54,49,42,47,42,38,100,79,57,0.00,40.00,7,3,17,0.01
2014-12-23,47,43,39,44,40,36,97,89,73,0.00,40.00,2,1,4,0.00
2014-12-24,50,44,41,49,39,33,98,81,61,0.00,40.00,8,5,21,0.00
2014-12-25,48,44,42,39,37,34,85,76,59,0.00,40.00,6,4,15,0.00
2014-12-26,47,41,32,40,37,31,98,86,69,0.00,40.00,6,2,16,0.00
2014-12-27,45,42,39,42,39,35,97,87,70,0.00,40.00,8,3,25,0.01
2014-12-28,44,41,38,40,37,35,98,85,70,0.00,40.00,9,4,23,0.02
2014-12-29,38,34,28,36,26,14,100,72,40,0.00,40.00,6,2,18,0.01
2014-12-30,28,25,20,13,7,4,65,47,38,0.00,40.00,7,4,16,0.00
2014-12-31,28,21,15,13,11,9,88,67,44,0.00,40.00,5,2,13,0.00
2015-1-1,29,22,14,16,13,11,88,69,49,0.00,40.00,5,2,14,0.00
2015-1-2,42,28,17,35,21,14,92,77,56,0.00,40.00,7,2,19,0.00